createdAt,value
2019-01-18T00:28:14.920Z,67.22
2019-01-18T00:28:15.495Z,67.13
2019-01-18T00:28:16.102Z,67.22
2019-01-18T00:28:16.694Z,67.13
2019-01-18T00:28:17.293Z,67.41
2019-01-18T00:28:17.893Z,67.13
2019-01-18T00:28:18.493Z,67.13
2019-01-18T00:28:19.093Z,67.22
2019-01-18T00:29:12.575Z,67.22
2019-01-18T00:29:13.147Z,67.32
2019-01-18T00:29:13.747Z,67.32
2019-01-18T00:29:14.346Z,67.03
2019-01-18T00:29:14.945Z,67.51
2019-01-18T00:29:15.546Z,67.03
2019-01-18T00:29:16.145Z,67.22
2019-01-18T00:29:16.744Z,67.03
2019-01-18T00:30:10.226Z,66.94
2019-01-18T00:30:10.799Z,67.03
2019-01-18T00:30:11.399Z,66.94
2019-01-18T00:30:11.998Z,66.94
2019-01-18T00:30:12.601Z,66.85
2019-01-18T00:30:13.199Z,67.03
2019-01-18T00:30:13.800Z,66.94
2019-01-18T00:30:14.397Z,66.85
2019-01-18T00:31:08.908Z,66.56
2019-01-18T00:31:09.473Z,66.56
2019-01-18T00:31:10.073Z,66.56
2019-01-18T00:31:10.674Z,66.56
2019-01-18T00:31:11.278Z,66.75
2019-01-18T00:31:11.873Z,66.75
2019-01-18T00:31:12.474Z,66.56
2019-01-18T00:31:13.073Z,66.85
2019-01-18T00:32:06.556Z,66.38
2019-01-18T00:32:07.129Z,65.91
2019-01-18T00:32:07.728Z,66.09
2019-01-18T00:32:08.326Z,66.09
2019-01-18T00:32:08.927Z,66.19
2019-01-18T00:32:09.526Z,65.91
2019-01-18T00:32:10.126Z,66.47
2019-01-18T00:32:10.725Z,66.28
2019-01-18T00:33:04.206Z,66.00
2019-01-18T00:33:04.780Z,66.47
2019-01-18T00:33:05.380Z,65.91
2019-01-18T00:33:05.982Z,65.91
2019-01-18T00:33:06.582Z,65.91
2019-01-18T00:33:07.179Z,65.91
2019-01-18T00:33:07.779Z,65.91
2019-01-18T00:33:08.378Z,65.72
2019-01-18T00:34:02.884Z,66.38
2019-01-18T00:34:03.455Z,65.91
2019-01-18T00:34:04.055Z,65.91
2019-01-18T00:34:04.655Z,66.19
2019-01-18T00:34:05.257Z,66.19
2019-01-18T00:34:05.854Z,66.00
2019-01-18T00:34:06.455Z,66.00
2019-01-18T00:34:07.054Z,66.19
2019-01-18T00:35:00.537Z,66.09
2019-01-18T00:35:01.109Z,66.09
2019-01-18T00:35:01.710Z,66.19
2019-01-18T00:35:02.308Z,66.19
2019-01-18T00:35:02.908Z,66.09
2019-01-18T00:35:03.507Z,66.19
2019-01-18T00:35:04.108Z,66.09
2019-01-18T00:35:04.707Z,66.19
2019-01-18T00:35:59.210Z,65.62
2019-01-18T00:35:59.785Z,65.91
2019-01-18T00:36:00.384Z,65.62
2019-01-18T00:36:00.982Z,65.62
2019-01-18T00:36:01.584Z,65.81
2019-01-18T00:36:02.182Z,65.62
2019-01-18T00:36:02.783Z,65.62
2019-01-18T00:36:03.383Z,65.81
2019-01-18T00:36:56.864Z,66.09
2019-01-18T00:36:57.436Z,66.09
2019-01-18T00:36:58.037Z,66.00
2019-01-18T00:36:58.638Z,66.00
2019-01-18T00:36:59.236Z,66.00
2019-01-18T00:36:59.835Z,66.09
2019-01-18T00:37:00.436Z,66.00
2019-01-18T00:37:01.034Z,66.00
2019-01-18T00:37:54.515Z,66.00
2019-01-18T00:37:55.088Z,66.00
2019-01-18T00:37:55.689Z,66.09
2019-01-18T00:37:56.288Z,65.72
2019-01-18T00:37:56.887Z,65.91
2019-01-18T00:37:57.488Z,65.81
2019-01-18T00:37:58.086Z,66.00
2019-01-18T00:37:58.687Z,65.91
2019-01-18T00:38:53.194Z,65.43
2019-01-18T00:38:53.762Z,64.96
2019-01-18T00:38:54.362Z,65.05
2019-01-18T00:38:54.961Z,65.43
2019-01-18T00:38:55.562Z,65.05
2019-01-18T00:38:56.161Z,65.43
2019-01-18T00:38:56.759Z,65.43
2019-01-18T00:38:57.359Z,65.43
2019-01-18T00:39:50.843Z,65.34
2019-01-18T00:39:51.416Z,65.34
2019-01-18T00:39:52.015Z,65.34
2019-01-18T00:39:52.618Z,65.34
2019-01-18T00:39:53.214Z,65.43
2019-01-18T00:39:53.814Z,65.43
2019-01-18T00:39:54.418Z,65.43
2019-01-18T00:39:55.016Z,65.43
2019-01-18T00:40:48.494Z,65.47
2019-01-18T00:40:49.068Z,65.53
2019-01-18T00:40:49.667Z,64.90
2019-01-18T00:40:50.269Z,65.53
2019-01-18T00:40:50.866Z,65.47
2019-01-18T00:40:51.468Z,65.34
2019-01-18T00:40:52.066Z,65.62
2019-01-18T00:40:52.667Z,65.66
2019-01-18T00:41:46.145Z,64.99
2019-01-18T00:41:46.720Z,64.80
2019-01-18T00:41:47.319Z,64.99
2019-01-18T00:41:47.920Z,64.99
2019-01-18T00:41:48.518Z,64.80
2019-01-18T00:41:49.122Z,65.18
2019-01-18T00:41:49.718Z,64.99
2019-01-18T00:41:50.323Z,64.99
2019-01-18T00:42:44.822Z,64.99
2019-01-18T00:42:45.395Z,65.28
2019-01-18T00:42:45.994Z,65.37
2019-01-18T00:42:46.594Z,65.28
2019-01-18T00:42:47.193Z,65.18
2019-01-18T00:42:47.794Z,65.28
2019-01-18T00:42:48.394Z,65.28
2019-01-18T00:42:48.994Z,65.09
2019-01-18T00:43:42.474Z,65.28
2019-01-18T00:43:43.046Z,65.18
2019-01-18T00:43:43.646Z,65.28
2019-01-18T00:43:44.246Z,65.28
2019-01-18T00:43:44.850Z,65.28
2019-01-18T00:43:45.446Z,65.18
2019-01-18T00:43:46.045Z,65.18
2019-01-18T00:43:46.646Z,65.28
2019-01-18T00:44:41.150Z,64.90
2019-01-18T00:44:41.722Z,64.90
2019-01-18T00:44:42.323Z,64.90
2019-01-18T00:44:42.921Z,64.90
2019-01-18T00:44:43.522Z,64.90
2019-01-18T00:44:44.121Z,64.80
2019-01-18T00:44:44.721Z,64.80
2019-01-18T00:44:45.322Z,64.80
2019-01-18T00:45:39.826Z,64.80
2019-01-18T00:45:40.397Z,64.71
2019-01-18T00:45:40.998Z,64.52
2019-01-18T00:45:41.597Z,64.71
2019-01-18T00:45:42.197Z,64.71
2019-01-18T00:45:42.799Z,64.61
2019-01-18T00:45:43.396Z,64.71
2019-01-18T00:45:43.997Z,64.71
2019-01-18T00:46:37.478Z,64.99
2019-01-18T00:46:38.050Z,64.90
2019-01-18T00:46:38.649Z,64.90
2019-01-18T00:46:39.250Z,65.09
2019-01-18T00:46:39.850Z,64.99
2019-01-18T00:46:40.450Z,64.90
2019-01-18T00:46:41.048Z,64.90
2019-01-18T00:46:41.650Z,64.99
2019-01-18T00:47:35.129Z,64.52
2019-01-18T00:47:35.702Z,64.52
2019-01-18T00:47:36.301Z,64.14
2019-01-18T00:47:36.903Z,64.23
2019-01-18T00:47:37.502Z,64.04
2019-01-18T00:47:38.100Z,64.23
2019-01-18T00:47:38.701Z,64.23
2019-01-18T00:47:39.300Z,64.23
2019-01-18T00:48:33.803Z,64.23
2019-01-18T00:48:34.378Z,64.33
2019-01-18T00:48:34.981Z,64.23
2019-01-18T00:48:35.583Z,64.52
2019-01-18T00:48:36.174Z,64.33
2019-01-18T00:48:36.776Z,64.33
2019-01-18T00:48:37.374Z,64.33
2019-01-18T00:48:37.974Z,64.33
2019-01-18T00:49:31.456Z,64.23
2019-01-18T00:49:32.031Z,64.04
2019-01-18T00:49:32.629Z,64.23
2019-01-18T00:49:33.230Z,64.23
2019-01-18T00:49:33.829Z,64.33
2019-01-18T00:49:34.428Z,64.33
2019-01-18T00:49:35.031Z,64.33
2019-01-18T00:49:35.628Z,64.33
2019-01-18T00:50:30.133Z,64.61
2019-01-18T00:50:30.704Z,64.52
2019-01-18T00:50:31.304Z,64.04
2019-01-18T00:50:31.904Z,64.23
2019-01-18T00:50:32.504Z,64.33
2019-01-18T00:50:33.104Z,64.04
2019-01-18T00:50:33.704Z,64.52
2019-01-18T00:50:34.304Z,64.04
2019-01-18T00:51:28.807Z,64.23
2019-01-18T00:51:29.381Z,64.23
2019-01-18T00:51:29.980Z,64.33
2019-01-18T00:51:30.579Z,64.14
2019-01-18T00:51:31.180Z,64.33
2019-01-18T00:51:31.781Z,64.33
2019-01-18T00:51:32.379Z,64.14
2019-01-18T00:51:32.982Z,64.33
2019-01-18T00:52:26.459Z,64.42
2019-01-18T00:52:27.031Z,64.14
2019-01-18T00:52:27.631Z,64.14
2019-01-18T00:52:28.232Z,64.23
2019-01-18T00:52:28.832Z,64.14
2019-01-18T00:52:29.433Z,64.42
2019-01-18T00:52:30.032Z,64.23
2019-01-18T00:52:30.631Z,64.23
2019-01-18T00:53:24.114Z,64.04
2019-01-18T00:53:24.685Z,64.23
2019-01-18T00:53:25.285Z,64.14
2019-01-18T00:53:25.885Z,63.76
2019-01-18T00:53:26.484Z,63.85
2019-01-18T00:53:27.084Z,64.33
2019-01-18T00:53:27.685Z,64.23
2019-01-18T00:53:28.283Z,64.33
2019-01-18T00:54:22.790Z,63.85
2019-01-18T00:54:23.363Z,63.85
2019-01-18T00:54:23.959Z,64.04
2019-01-18T00:54:24.558Z,64.14
2019-01-18T00:54:25.160Z,63.95
2019-01-18T00:54:25.761Z,63.85
2019-01-18T00:54:26.358Z,64.14
2019-01-18T00:54:26.960Z,63.85
2019-01-18T00:55:20.440Z,63.95
2019-01-18T00:55:21.012Z,64.04
2019-01-18T00:55:21.612Z,63.85
2019-01-18T00:55:22.215Z,64.04
2019-01-18T00:55:22.812Z,63.85
2019-01-18T00:55:23.413Z,64.14
2019-01-18T00:55:24.012Z,63.95
2019-01-18T00:55:24.613Z,63.85
2019-01-18T00:56:18.093Z,64.14
2019-01-18T00:56:18.664Z,64.04
2019-01-18T00:56:19.266Z,64.04
2019-01-18T00:56:19.863Z,64.14
2019-01-18T00:56:20.465Z,63.95
2019-01-18T00:56:21.063Z,64.04
2019-01-18T00:56:21.663Z,63.95
2019-01-18T00:56:22.262Z,64.14
2019-01-18T00:57:17.183Z,63.95
2019-01-18T00:57:17.187Z,64.14
2019-01-18T00:57:17.241Z,64.14
2019-01-18T00:57:17.515Z,64.14
2019-01-18T00:57:18.113Z,64.04
2019-01-18T00:57:18.714Z,64.14
2019-01-18T00:57:19.319Z,63.85
2019-01-18T00:57:19.914Z,64.14
2019-01-18T00:58:14.418Z,64.23
2019-01-18T00:58:14.989Z,64.04
2019-01-18T00:58:15.589Z,63.95
2019-01-18T00:58:16.190Z,64.04
2019-01-18T00:58:16.790Z,64.04
2019-01-18T00:58:17.390Z,64.04
2019-01-18T00:58:17.988Z,64.42
2019-01-18T00:58:18.589Z,64.04
2019-01-18T00:59:12.071Z,63.76
2019-01-18T00:59:12.642Z,64.04
2019-01-18T00:59:13.243Z,63.85
2019-01-18T00:59:13.844Z,63.95
2019-01-18T00:59:14.441Z,64.14
2019-01-18T00:59:15.041Z,63.76
2019-01-18T00:59:15.642Z,63.76
2019-01-18T00:59:16.241Z,63.95
2019-01-18T01:00:09.722Z,64.42
2019-01-18T01:00:10.295Z,64.23
2019-01-18T01:00:10.895Z,64.23
2019-01-18T01:00:11.497Z,64.33
2019-01-18T01:00:12.097Z,64.23
2019-01-18T01:00:12.695Z,64.33
2019-01-18T01:00:13.294Z,64.52
2019-01-18T01:00:13.893Z,64.52
2019-01-18T01:01:08.396Z,64.99
2019-01-18T01:01:08.969Z,64.99
2019-01-18T01:01:09.569Z,64.99
2019-01-18T01:01:10.170Z,64.99
2019-01-18T01:01:10.772Z,64.99
2019-01-18T01:01:11.369Z,65.09
2019-01-18T01:01:11.967Z,65.09
2019-01-18T01:01:12.568Z,65.09
2019-01-18T01:02:06.051Z,64.71
2019-01-18T01:02:06.621Z,65.18
2019-01-18T01:02:07.222Z,64.99
2019-01-18T01:02:07.822Z,64.99
2019-01-18T01:02:08.421Z,64.99
2019-01-18T01:02:09.022Z,65.09
2019-01-18T01:02:09.623Z,64.99
2019-01-18T01:02:10.220Z,64.99
2019-01-18T01:03:03.702Z,66.41
2019-01-18T01:03:04.276Z,66.50
2019-01-18T01:03:04.874Z,66.31
2019-01-18T01:03:05.475Z,66.22
2019-01-18T01:03:06.073Z,66.50
2019-01-18T01:03:06.677Z,66.69
2019-01-18T01:03:07.273Z,66.60
2019-01-18T01:03:07.872Z,65.94
2019-01-18T01:04:01.352Z,67.55
2019-01-18T01:04:01.926Z,67.55
2019-01-18T01:04:02.525Z,67.45
2019-01-18T01:04:03.125Z,67.17
2019-01-18T01:04:03.730Z,67.26
2019-01-18T01:04:04.326Z,68.12
2019-01-18T01:04:04.925Z,68.30
2019-01-18T01:04:05.524Z,68.21
2019-01-18T01:05:00.028Z,69.53
2019-01-18T01:05:00.601Z,69.53
2019-01-18T01:05:01.202Z,69.72
2019-01-18T01:05:01.804Z,69.72
2019-01-18T01:05:02.399Z,69.91
2019-01-18T01:05:02.998Z,69.63
2019-01-18T01:05:03.599Z,69.91
2019-01-18T01:05:04.198Z,69.91
2019-01-18T01:05:58.702Z,71.71
2019-01-18T01:05:59.276Z,71.14
2019-01-18T01:05:59.876Z,71.23
2019-01-18T01:06:00.476Z,71.23
2019-01-18T01:06:01.076Z,71.04
2019-01-18T01:06:01.675Z,71.04
2019-01-18T01:06:02.274Z,71.14
2019-01-18T01:06:02.875Z,71.14
2019-01-18T01:06:56.356Z,73.32
2019-01-18T01:06:56.928Z,73.03
2019-01-18T01:06:57.529Z,73.03
2019-01-18T01:06:58.129Z,73.13
2019-01-18T01:06:58.731Z,73.03
2019-01-18T01:06:59.327Z,73.32
2019-01-18T01:06:59.927Z,72.94
2019-01-18T01:07:00.529Z,72.94
2019-01-18T01:07:55.031Z,74.74
2019-01-18T01:07:55.606Z,74.64
2019-01-18T01:07:56.203Z,74.74
2019-01-18T01:07:56.803Z,74.74
2019-01-18T01:07:57.403Z,74.74
2019-01-18T01:07:58.003Z,74.74
2019-01-18T01:07:58.604Z,74.45
2019-01-18T01:07:59.203Z,74.55
2019-01-18T01:08:52.682Z,75.68
2019-01-18T01:08:53.257Z,75.78
2019-01-18T01:08:53.856Z,75.96
2019-01-18T01:08:54.456Z,75.78
2019-01-18T01:08:55.057Z,75.68
2019-01-18T01:08:55.655Z,75.68
2019-01-18T01:08:56.254Z,75.87
2019-01-18T01:08:56.895Z,75.49
2019-01-18T01:09:50.337Z,75.87
2019-01-18T01:09:50.907Z,76.44
2019-01-18T01:09:51.508Z,75.96
2019-01-18T01:09:52.109Z,76.06
2019-01-18T01:09:52.707Z,75.87
2019-01-18T01:09:53.307Z,76.34
2019-01-18T01:09:53.908Z,76.34
2019-01-18T01:09:54.510Z,76.44
2019-01-18T01:10:49.009Z,77.76
2019-01-18T01:10:49.582Z,77.86
2019-01-18T01:10:50.183Z,77.86
2019-01-18T01:10:50.781Z,77.58
2019-01-18T01:10:51.381Z,77.58
2019-01-18T01:10:51.992Z,77.58
2019-01-18T01:10:52.581Z,77.39
2019-01-18T01:10:53.181Z,77.58
2019-01-18T01:11:46.662Z,78.05
2019-01-18T01:11:47.236Z,78.05
2019-01-18T01:11:47.835Z,78.05
2019-01-18T01:11:48.435Z,78.23
2019-01-18T01:11:49.034Z,78.05
2019-01-18T01:11:49.633Z,78.05
2019-01-18T01:11:50.233Z,78.14
2019-01-18T01:11:50.833Z,78.14
2019-01-18T01:12:44.313Z,78.71
2019-01-18T01:12:44.887Z,78.71
2019-01-18T01:12:45.486Z,78.71
2019-01-18T01:12:46.087Z,78.71
2019-01-18T01:12:46.690Z,78.90
2019-01-18T01:12:47.287Z,78.71
2019-01-18T01:12:47.887Z,78.71
2019-01-18T01:12:48.486Z,78.99
2019-01-18T01:13:41.966Z,79.09
2019-01-18T01:13:42.538Z,79.37
2019-01-18T01:13:43.139Z,79.28
2019-01-18T01:13:43.739Z,79.28
2019-01-18T01:13:44.340Z,79.37
2019-01-18T01:13:44.937Z,79.37
2019-01-18T01:13:45.537Z,79.37
2019-01-18T01:13:46.138Z,79.37
2019-01-18T01:14:40.640Z,79.56
2019-01-18T01:14:41.214Z,79.94
2019-01-18T01:14:41.812Z,79.66
2019-01-18T01:14:42.412Z,79.94
2019-01-18T01:14:43.013Z,80.04
2019-01-18T01:14:43.612Z,80.04
2019-01-18T01:14:44.212Z,79.94
2019-01-18T01:14:44.813Z,80.04
2019-01-18T01:15:39.315Z,80.22
2019-01-18T01:15:39.888Z,80.51
2019-01-18T01:15:40.494Z,80.51
2019-01-18T01:15:41.090Z,80.41
2019-01-18T01:15:41.688Z,80.60
2019-01-18T01:15:42.289Z,80.51
2019-01-18T01:15:42.890Z,80.60
2019-01-18T01:15:43.488Z,80.32
2019-01-18T01:16:37.994Z,80.04
2019-01-18T01:16:38.566Z,80.22
2019-01-18T01:16:39.165Z,80.22
2019-01-18T01:16:39.770Z,80.04
2019-01-18T01:16:40.366Z,80.32
2019-01-18T01:16:40.964Z,80.04
2019-01-18T01:16:41.563Z,80.04
2019-01-18T01:16:42.164Z,79.85
2019-01-18T01:17:36.670Z,80.79
2019-01-18T01:17:37.239Z,80.98
2019-01-18T01:17:37.839Z,80.98
2019-01-18T01:17:38.440Z,81.26
2019-01-18T01:17:39.039Z,81.17
2019-01-18T01:17:39.639Z,81.07
2019-01-18T01:17:40.239Z,81.17
2019-01-18T01:17:40.839Z,81.17
2019-01-18T01:18:35.343Z,81.36
2019-01-18T01:18:35.917Z,81.07
2019-01-18T01:18:36.516Z,81.26
2019-01-18T01:18:37.116Z,81.26
2019-01-18T01:18:37.715Z,81.26
2019-01-18T01:18:38.315Z,81.36
2019-01-18T01:18:38.918Z,81.45
2019-01-18T01:18:39.515Z,81.45
2019-01-18T01:19:34.019Z,82.31
2019-01-18T01:19:34.590Z,81.93
2019-01-18T01:19:35.190Z,82.12
2019-01-18T01:19:35.792Z,82.12
2019-01-18T01:19:36.390Z,82.59
2019-01-18T01:19:36.990Z,82.12
2019-01-18T01:19:37.589Z,82.59
2019-01-18T01:19:38.191Z,82.68
2019-01-18T01:20:33.205Z,82.59
2019-01-18T01:20:33.779Z,82.97
2019-01-18T01:20:34.379Z,82.97
2019-01-18T01:20:34.980Z,82.97
2019-01-18T01:20:35.578Z,82.59
2019-01-18T01:20:36.178Z,82.97
2019-01-18T01:20:36.781Z,82.87
2019-01-18T01:21:31.166Z,82.97
2019-01-18T01:21:31.740Z,82.78
2019-01-18T01:21:32.339Z,82.87
2019-01-18T01:21:32.941Z,83.15
2019-01-18T01:21:33.540Z,82.97
2019-01-18T01:21:34.138Z,82.97
2019-01-18T01:21:34.738Z,83.15
2019-01-18T01:21:35.339Z,83.15
2019-01-18T01:22:28.820Z,82.40
2019-01-18T01:22:29.391Z,82.21
2019-01-18T01:22:29.993Z,82.59
2019-01-18T01:22:30.590Z,82.31
2019-01-18T01:22:31.191Z,82.40
2019-01-18T01:22:31.791Z,82.59
2019-01-18T01:22:32.393Z,82.31
2019-01-18T01:22:32.990Z,82.31
2019-01-18T01:23:26.469Z,82.50
2019-01-18T01:23:27.042Z,82.59
2019-01-18T01:23:27.642Z,82.50
2019-01-18T01:23:28.241Z,82.50
2019-01-18T01:23:28.842Z,82.50
2019-01-18T01:23:29.442Z,82.50
2019-01-18T01:23:30.042Z,82.59
2019-01-18T01:23:30.640Z,82.59
2019-01-18T01:24:24.123Z,83.34
2019-01-18T01:24:24.699Z,83.34
2019-01-18T01:24:25.294Z,83.34
2019-01-18T01:24:25.896Z,83.34
2019-01-18T01:24:26.507Z,83.44
2019-01-18T01:24:27.093Z,83.53
2019-01-18T01:24:27.692Z,83.44
2019-01-18T01:24:28.294Z,83.15
2019-01-18T01:25:21.786Z,83.72
2019-01-18T01:25:22.362Z,83.63
2019-01-18T01:25:22.947Z,83.63
2019-01-18T01:25:23.546Z,83.53
2019-01-18T01:25:24.148Z,83.53
2019-01-18T01:25:24.744Z,83.53
2019-01-18T01:25:25.344Z,83.63
2019-01-18T01:25:25.944Z,83.63
2019-01-18T01:26:19.425Z,83.91
2019-01-18T01:26:19.998Z,84.10
2019-01-18T01:26:20.598Z,84.10
2019-01-18T01:26:21.197Z,84.01
2019-01-18T01:26:21.799Z,84.10
2019-01-18T01:26:22.397Z,84.20
2019-01-18T01:26:22.998Z,84.01
2019-01-18T01:26:23.602Z,84.10
2019-01-18T01:27:18.098Z,84.86
2019-01-18T01:27:18.673Z,84.67
2019-01-18T01:27:20.155Z,84.67
2019-01-18T01:27:20.636Z,84.58
2019-01-18T01:27:21.238Z,84.58
2019-01-18T01:27:21.833Z,84.86
2019-01-18T01:27:22.432Z,84.48
2019-01-18T01:28:15.958Z,83.53
2019-01-18T01:28:16.530Z,83.53
2019-01-18T01:28:17.131Z,83.72
2019-01-18T01:28:17.731Z,83.53
2019-01-18T01:28:18.330Z,83.82
2019-01-18T01:28:18.934Z,83.91
2019-01-18T01:28:19.531Z,83.72
2019-01-18T01:28:20.129Z,83.72
2019-01-18T01:29:13.610Z,83.53
2019-01-18T01:29:14.181Z,83.44
2019-01-18T01:29:14.782Z,83.53
2019-01-18T01:29:15.381Z,83.34
2019-01-18T01:29:15.982Z,83.44
2019-01-18T01:29:16.582Z,83.25
2019-01-18T01:29:17.180Z,83.25
2019-01-18T01:29:17.780Z,83.44
2019-01-18T01:30:11.260Z,83.25
2019-01-18T01:30:11.835Z,83.72
2019-01-18T01:30:12.432Z,83.82
2019-01-18T01:30:13.032Z,83.91
2019-01-18T01:30:13.635Z,83.44
2019-01-18T01:30:14.238Z,83.91
2019-01-18T01:30:14.833Z,83.72
2019-01-18T01:30:15.435Z,83.82
2019-01-18T01:31:09.935Z,83.53
2019-01-18T01:31:10.508Z,83.63
2019-01-18T01:31:11.107Z,83.53
2019-01-18T01:31:11.708Z,83.53
2019-01-18T01:31:12.308Z,83.53
2019-01-18T01:31:12.906Z,83.72
2019-01-18T01:31:13.506Z,83.63
2019-01-18T01:31:14.107Z,83.44
2019-01-18T01:32:07.587Z,83.63
2019-01-18T01:32:08.161Z,83.63
2019-01-18T01:32:08.762Z,83.72
2019-01-18T01:32:09.360Z,83.53
2019-01-18T01:32:09.962Z,83.53
2019-01-18T01:32:10.560Z,83.44
2019-01-18T01:32:11.159Z,84.10
2019-01-18T01:32:11.780Z,83.53
2019-01-18T01:33:05.332Z,83.53
2019-01-18T01:33:05.812Z,83.44
2019-01-18T01:33:06.412Z,83.53
2019-01-18T01:33:07.009Z,83.72
2019-01-18T01:33:07.611Z,83.44
2019-01-18T01:33:08.213Z,83.44
2019-01-18T01:33:08.809Z,83.53
2019-01-18T01:33:09.411Z,83.34
2019-01-18T01:34:02.890Z,83.44
2019-01-18T01:34:03.464Z,83.44
2019-01-18T01:34:04.066Z,83.44
2019-01-18T01:34:04.663Z,83.25
2019-01-18T01:34:05.265Z,83.44
2019-01-18T01:34:05.863Z,82.87
2019-01-18T01:34:06.462Z,82.87
2019-01-18T01:34:07.065Z,83.25
2019-01-18T01:35:00.543Z,82.50
2019-01-18T01:35:01.116Z,82.50
2019-01-18T01:35:01.720Z,82.50
2019-01-18T01:35:02.320Z,82.50
2019-01-18T01:35:02.914Z,82.50
2019-01-18T01:35:03.516Z,82.97
2019-01-18T01:35:05.095Z,82.50
2019-01-18T01:35:59.115Z,82.59
2019-01-18T01:35:59.688Z,82.31
2019-01-18T01:36:00.292Z,81.93
2019-01-18T01:36:00.889Z,82.40
2019-01-18T01:36:01.488Z,82.50
2019-01-18T01:36:02.089Z,82.59
2019-01-18T01:36:02.688Z,82.59
2019-01-18T01:36:03.293Z,82.21
2019-01-18T01:36:56.769Z,82.68
2019-01-18T01:36:57.341Z,82.50
2019-01-18T01:36:57.942Z,82.21
2019-01-18T01:36:58.540Z,82.21
2019-01-18T01:36:59.140Z,82.40
2019-01-18T01:36:59.740Z,82.02
2019-01-18T01:37:00.339Z,82.31
2019-01-18T01:37:00.939Z,82.59
2019-01-18T01:37:55.454Z,82.12
2019-01-18T01:37:56.018Z,81.93
2019-01-18T01:37:56.616Z,81.93
2019-01-18T01:37:57.216Z,81.93
2019-01-18T01:37:57.818Z,81.93
2019-01-18T01:37:58.414Z,82.02
2019-01-18T01:37:59.067Z,82.02
2019-01-18T01:37:59.614Z,81.93
2019-01-18T01:38:53.096Z,81.36
2019-01-18T01:38:53.667Z,81.36
2019-01-18T01:38:54.268Z,81.36
2019-01-18T01:38:54.867Z,81.36
2019-01-18T01:38:55.467Z,81.45
2019-01-18T01:38:56.068Z,81.36
2019-01-18T01:38:56.667Z,81.26
2019-01-18T01:38:57.266Z,81.36
2019-01-18T01:39:50.778Z,81.17
2019-01-18T01:39:51.319Z,81.45
2019-01-18T01:39:51.920Z,81.55
2019-01-18T01:39:52.521Z,81.64
2019-01-18T01:39:53.121Z,81.36
2019-01-18T01:39:53.719Z,81.26
2019-01-18T01:39:54.318Z,81.26
2019-01-18T01:39:54.920Z,81.45
2019-01-18T01:40:48.398Z,81.45
2019-01-18T01:40:48.971Z,81.45
2019-01-18T01:40:49.572Z,81.55
2019-01-18T01:40:50.170Z,81.26
2019-01-18T01:40:50.770Z,81.55
2019-01-18T01:40:51.370Z,81.36
2019-01-18T01:40:51.970Z,81.83
2019-01-18T01:40:52.571Z,81.36
2019-01-18T01:41:47.075Z,81.17
2019-01-18T01:41:47.658Z,81.26
2019-01-18T01:41:48.247Z,81.07
2019-01-18T01:41:48.846Z,81.17
2019-01-18T01:41:49.445Z,81.26
2019-01-18T01:41:50.046Z,81.26
2019-01-18T01:41:50.651Z,81.17
2019-01-18T01:41:51.245Z,81.26
2019-01-18T01:42:45.750Z,81.64
2019-01-18T01:42:46.322Z,81.45
2019-01-18T01:42:46.924Z,81.36
2019-01-18T01:42:47.522Z,81.74
2019-01-18T01:42:48.121Z,81.45
2019-01-18T01:42:48.721Z,81.64
2019-01-18T01:42:49.321Z,81.36
2019-01-18T01:42:49.920Z,81.64
2019-01-18T01:43:44.425Z,81.93
2019-01-18T01:43:45.000Z,82.21
2019-01-18T01:43:45.605Z,82.17
2019-01-18T01:43:46.198Z,81.88
2019-01-18T01:43:46.803Z,82.12
2019-01-18T01:43:47.397Z,82.02
2019-01-18T01:43:47.997Z,82.02
2019-01-18T01:43:48.596Z,82.07
2019-01-18T01:44:43.099Z,82.26
2019-01-18T01:44:43.674Z,82.45
2019-01-18T01:44:44.274Z,82.45
2019-01-18T01:44:44.873Z,82.07
2019-01-18T01:44:45.475Z,82.59
2019-01-18T01:44:46.072Z,82.31
2019-01-18T01:44:46.673Z,82.54
2019-01-18T01:44:47.273Z,82.45
2019-01-18T01:45:40.756Z,82.45
2019-01-18T01:45:41.332Z,82.54
2019-01-18T01:45:41.926Z,82.50
2019-01-18T01:45:42.526Z,82.45
2019-01-18T01:45:43.127Z,82.78
2019-01-18T01:45:43.726Z,82.54
2019-01-18T01:45:44.325Z,82.54
2019-01-18T01:45:44.925Z,82.73
2019-01-18T01:46:38.405Z,82.17
2019-01-18T01:46:38.978Z,82.12
2019-01-18T01:46:39.581Z,82.35
2019-01-18T01:46:40.176Z,81.98
2019-01-18T01:46:40.776Z,82.21
2019-01-18T01:46:41.377Z,82.35
2019-01-18T01:46:41.976Z,81.98
2019-01-18T01:46:42.578Z,81.98
2019-01-18T01:47:37.079Z,82.26
2019-01-18T01:47:37.652Z,82.07
2019-01-18T01:47:38.251Z,81.98
2019-01-18T01:47:38.851Z,82.07
2019-01-18T01:47:39.452Z,82.26
2019-01-18T01:47:40.051Z,82.07
2019-01-18T01:47:40.653Z,81.88
2019-01-18T01:47:41.254Z,82.17
2019-01-18T01:48:50.308Z,81.79
2019-01-18T01:48:50.869Z,81.98
2019-01-18T01:48:51.468Z,81.70
2019-01-18T01:48:52.071Z,82.26
2019-01-18T01:48:52.671Z,81.98
2019-01-18T01:48:53.268Z,81.98
2019-01-18T01:48:53.867Z,82.17
2019-01-18T01:48:54.471Z,82.07
2019-01-18T01:48:55.067Z,82.07
2019-01-18T01:48:55.668Z,82.07
2019-01-18T01:48:56.267Z,82.07
2019-01-18T01:48:56.867Z,82.26
2019-01-18T01:48:57.467Z,82.17
2019-01-18T01:48:58.066Z,82.17
2019-01-18T01:48:58.669Z,82.07
2019-01-18T01:48:59.266Z,82.17
2019-01-18T01:49:59.333Z,82.45
2019-01-18T01:49:59.889Z,82.64
2019-01-18T01:50:00.490Z,82.73
2019-01-18T01:50:01.095Z,82.64
2019-01-18T01:50:01.686Z,82.54
2019-01-18T01:50:02.286Z,82.64
2019-01-18T01:50:02.887Z,82.73
2019-01-18T01:50:03.487Z,82.45
2019-01-18T01:50:04.085Z,82.45
2019-01-18T01:50:04.685Z,82.64
2019-01-18T01:50:05.285Z,82.45
2019-01-18T01:50:05.901Z,82.35
2019-01-18T01:50:06.484Z,82.64
2019-01-18T01:50:07.082Z,82.45
2019-01-18T01:50:07.682Z,82.64
2019-01-18T01:50:08.281Z,82.64
2019-01-18T01:51:26.763Z,81.79
2019-01-18T01:51:27.339Z,81.79
2019-01-18T01:51:27.935Z,81.88
2019-01-18T01:51:28.534Z,81.70
2019-01-18T01:51:29.134Z,81.70
2019-01-18T01:51:29.747Z,81.83
2019-01-18T01:51:30.335Z,81.98
2019-01-18T01:51:30.933Z,81.60
2019-01-18T01:51:31.533Z,81.70
2019-01-18T01:51:32.133Z,81.51
2019-01-18T01:51:32.732Z,81.51
2019-01-18T01:51:33.332Z,81.88
2019-01-18T01:51:33.932Z,81.51
2019-01-18T01:51:34.536Z,81.98
2019-01-18T01:51:35.131Z,81.51
2019-01-18T01:51:35.741Z,81.70
2019-01-18T01:51:36.333Z,81.70
2019-01-18T01:52:30.357Z,82.07
2019-01-18T01:52:30.929Z,82.07
2019-01-18T01:52:31.529Z,82.07
2019-01-18T01:52:32.129Z,82.26
2019-01-18T01:52:32.728Z,82.07
2019-01-18T01:52:33.333Z,82.45
2019-01-18T01:52:33.929Z,82.35
2019-01-18T01:52:34.528Z,82.35
2019-01-18T01:53:29.032Z,82.26
2019-01-18T01:53:29.604Z,81.88
2019-01-18T01:53:30.205Z,81.88
2019-01-18T01:53:30.803Z,82.26
2019-01-18T01:53:31.404Z,82.07
2019-01-18T01:53:32.005Z,81.88
2019-01-18T01:53:32.602Z,81.88
2019-01-18T01:53:33.204Z,81.88
2019-01-18T01:54:26.691Z,82.73
2019-01-18T01:54:27.255Z,82.92
2019-01-18T01:54:27.856Z,83.02
2019-01-18T01:54:28.456Z,82.83
2019-01-18T01:54:29.056Z,82.83
2019-01-18T01:54:29.657Z,82.92
2019-01-18T01:54:30.256Z,82.83
2019-01-18T01:54:30.855Z,82.83
2019-01-18T01:55:24.336Z,83.02
2019-01-18T01:55:24.909Z,82.73
2019-01-18T01:55:25.507Z,82.64
2019-01-18T01:55:26.108Z,83.02
2019-01-18T01:55:26.707Z,83.02
2019-01-18T01:55:27.310Z,82.92
2019-01-18T01:55:27.907Z,82.64
2019-01-18T01:55:28.507Z,82.73
2019-01-18T01:56:21.987Z,82.54
2019-01-18T01:56:22.565Z,82.54
2019-01-18T01:56:23.160Z,82.64
2019-01-18T01:56:23.759Z,82.54
2019-01-18T01:56:24.359Z,82.54
2019-01-18T01:56:24.959Z,82.54
2019-01-18T01:56:25.560Z,82.54
2019-01-18T01:56:26.159Z,82.83
2019-01-18T01:57:19.638Z,82.73
2019-01-18T01:57:20.212Z,82.73
2019-01-18T01:57:20.811Z,82.73
2019-01-18T01:57:21.413Z,82.92
2019-01-18T01:57:22.012Z,82.83
2019-01-18T01:57:22.612Z,82.54
2019-01-18T01:57:23.211Z,82.73
2019-01-18T01:57:23.812Z,82.64
2019-01-18T01:58:17.290Z,82.64
2019-01-18T01:58:17.864Z,82.45
2019-01-18T01:58:18.463Z,82.64
2019-01-18T01:58:19.067Z,82.35
2019-01-18T01:58:19.667Z,82.64
2019-01-18T01:58:20.263Z,82.54
2019-01-18T01:58:20.862Z,82.64
2019-01-18T01:58:21.462Z,82.54
2019-01-18T01:59:15.975Z,82.54
2019-01-18T01:59:16.539Z,82.54
2019-01-18T01:59:17.138Z,82.07
2019-01-18T01:59:17.738Z,82.07
2019-01-18T01:59:18.337Z,81.88
2019-01-18T01:59:18.937Z,82.07
2019-01-18T01:59:19.539Z,81.88